sensor_id;sensor_type;location;lat;lon;timestamp;P1;durP1;ratioP1;P2;durP2;ratioP2
22697;SDS011;11516;51.612;7.510;2022-11-30T00:01:40;68.67;;;34.70;;
22697;SDS011;11516;51.612;7.510;2022-11-30T00:04:06;70.93;;;36.47;;
22697;SDS011;11516;51.612;7.510;2022-11-30T00:06:32;71.45;;;35.83;;
22697;SDS011;11516;51.612;7.510;2022-11-30T00:08:57;70.20;;;36.57;;
22697;SDS011;11516;51.612;7.510;2022-11-30T00:11:24;67.15;;;34.00;;
22697;SDS011;11516;51.612;7.510;2022-11-30T00:13:50;69.95;;;35.45;;
22697;SDS011;11516;51.612;7.510;2022-11-30T00:16:16;69.63;;;34.50;;
22697;SDS011;11516;51.612;7.510;2022-11-30T00:18:42;69.85;;;35.80;;
22697;SDS011;11516;51.612;7.510;2022-11-30T00:21:09;66.93;;;34.13;;
22697;SDS011;11516;51.612;7.510;2022-11-30T00:23:38;74.03;;;35.97;;
22697;SDS011;11516;51.612;7.510;2022-11-30T00:26:06;64.28;;;33.58;;
22697;SDS011;11516;51.612;7.510;2022-11-30T00:28:33;65.93;;;33.85;;
22697;SDS011;11516;51.612;7.510;2022-11-30T00:31:00;70.30;;;34.03;;
22697;SDS011;11516;51.612;7.510;2022-11-30T00:33:31;67.47;;;34.35;;
22697;SDS011;11516;51.612;7.510;2022-11-30T00:35:58;65.82;;;33.63;;
22697;SDS011;11516;51.612;7.510;2022-11-30T00:38:25;67.60;;;34.20;;
22697;SDS011;11516;51.612;7.510;2022-11-30T00:40:50;65.22;;;32.35;;
22697;SDS011;11516;51.612;7.510;2022-11-30T00:43:16;67.70;;;34.73;;
22697;SDS011;11516;51.612;7.510;2022-11-30T00:45:42;64.78;;;32.15;;
22697;SDS011;11516;51.612;7.510;2022-11-30T00:48:08;64.00;;;31.80;;
22697;SDS011;11516;51.612;7.510;2022-11-30T00:50:33;64.97;;;33.00;;
22697;SDS011;11516;51.612;7.510;2022-11-30T00:52:59;67.35;;;33.05;;
22697;SDS011;11516;51.612;7.510;2022-11-30T00:55:24;70.72;;;33.47;;
22697;SDS011;11516;51.612;7.510;2022-11-30T00:57:51;70.50;;;34.40;;
22697;SDS011;11516;51.612;7.510;2022-11-30T01:00:17;65.05;;;33.65;;
22697;SDS011;11516;51.612;7.510;2022-11-30T01:02:42;70.68;;;33.75;;
22697;SDS011;11516;51.612;7.510;2022-11-30T01:05:09;65.70;;;31.95;;
22697;SDS011;11516;51.612;7.510;2022-11-30T01:07:34;61.40;;;31.13;;
22697;SDS011;11516;51.612;7.510;2022-11-30T01:10:00;40.93;;;26.70;;
22697;SDS011;11516;51.612;7.510;2022-11-30T01:12:25;35.40;;;23.55;;
22697;SDS011;11516;51.612;7.510;2022-11-30T01:14:51;35.97;;;24.23;;
22697;SDS011;11516;51.612;7.510;2022-11-30T01:17:16;33.67;;;23.13;;
22697;SDS011;11516;51.612;7.510;2022-11-30T01:19:42;36.27;;;25.10;;
22697;SDS011;11516;51.612;7.510;2022-11-30T01:22:07;34.13;;;24.00;;
22697;SDS011;11516;51.612;7.510;2022-11-30T01:24:33;36.53;;;24.37;;
22697;SDS011;11516;51.612;7.510;2022-11-30T01:26:58;39.43;;;25.77;;
22697;SDS011;11516;51.612;7.510;2022-11-30T01:29:23;43.35;;;29.38;;
22697;SDS011;11516;51.612;7.510;2022-11-30T01:31:49;48.97;;;29.67;;
22697;SDS011;11516;51.612;7.510;2022-11-30T01:34:14;48.53;;;30.47;;
22697;SDS011;11516;51.612;7.510;2022-11-30T01:36:40;48.57;;;30.07;;
22697;SDS011;11516;51.612;7.510;2022-11-30T01:39:07;51.85;;;32.30;;
22697;SDS011;11516;51.612;7.510;2022-11-30T01:41:35;49.75;;;31.58;;
22697;SDS011;11516;51.612;7.510;2022-11-30T01:46:39;47.03;;;30.25;;
22697;SDS011;11516;51.612;7.510;2022-11-30T01:49:26;43.92;;;27.77;;
22697;SDS011;11516;51.612;7.510;2022-11-30T01:51:59;44.92;;;28.73;;
22697;SDS011;11516;51.612;7.510;2022-11-30T01:54:41;44.33;;;28.20;;
22697;SDS011;11516;51.612;7.510;2022-11-30T01:57:17;45.00;;;28.80;;
22697;SDS011;11516;51.612;7.510;2022-11-30T01:59:53;44.10;;;28.52;;
22697;SDS011;11516;51.612;7.510;2022-11-30T02:02:26;44.45;;;27.65;;
22697;SDS011;11516;51.612;7.510;2022-11-30T02:05:12;43.30;;;27.80;;
22697;SDS011;11516;51.612;7.510;2022-11-30T02:07:39;41.15;;;26.75;;
22697;SDS011;11516;51.612;7.510;2022-11-30T02:10:05;41.33;;;25.40;;
22697;SDS011;11516;51.612;7.510;2022-11-30T02:12:37;41.38;;;25.65;;
22697;SDS011;11516;51.612;7.510;2022-11-30T02:15:10;41.55;;;24.40;;
22697;SDS011;11516;51.612;7.510;2022-11-30T02:17:48;36.05;;;23.58;;
22697;SDS011;11516;51.612;7.510;2022-11-30T02:31:25;39.53;;;23.02;;
22697;SDS011;11516;51.612;7.510;2022-11-30T02:33:56;40.60;;;24.52;;
22697;SDS011;11516;51.612;7.510;2022-11-30T02:36:23;41.20;;;24.65;;
22697;SDS011;11516;51.612;7.510;2022-11-30T02:38:50;40.47;;;23.77;;
22697;SDS011;11516;51.612;7.510;2022-11-30T02:41:16;38.85;;;23.55;;
22697;SDS011;11516;51.612;7.510;2022-11-30T02:43:42;39.07;;;24.00;;
22697;SDS011;11516;51.612;7.510;2022-11-30T02:46:19;39.47;;;25.55;;
22697;SDS011;11516;51.612;7.510;2022-11-30T02:48:55;42.55;;;25.95;;
22697;SDS011;11516;51.612;7.510;2022-11-30T02:51:29;38.92;;;25.40;;
22697;SDS011;11516;51.612;7.510;2022-11-30T02:53:57;40.40;;;26.07;;
22697;SDS011;11516;51.612;7.510;2022-11-30T02:56:22;38.42;;;26.02;;
22697;SDS011;11516;51.612;7.510;2022-11-30T02:58:48;43.07;;;27.30;;
22697;SDS011;11516;51.612;7.510;2022-11-30T03:01:14;39.15;;;25.58;;
22697;SDS011;11516;51.612;7.510;2022-11-30T03:03:39;37.13;;;26.03;;
22697;SDS011;11516;51.612;7.510;2022-11-30T03:06:05;37.73;;;26.33;;
22697;SDS011;11516;51.612;7.510;2022-11-30T03:08:30;37.00;;;26.17;;
22697;SDS011;11516;51.612;7.510;2022-11-30T03:10:59;37.75;;;25.27;;
22697;SDS011;11516;51.612;7.510;2022-11-30T03:13:26;37.65;;;25.25;;
22697;SDS011;11516;51.612;7.510;2022-11-30T03:15:52;35.80;;;25.17;;
22697;SDS011;11516;51.612;7.510;2022-11-30T03:18:17;38.13;;;25.50;;
22697;SDS011;11516;51.612;7.510;2022-11-30T03:20:43;34.40;;;24.27;;
22697;SDS011;11516;51.612;7.510;2022-11-30T03:23:08;33.60;;;24.10;;
22697;SDS011;11516;51.612;7.510;2022-11-30T03:25:34;35.78;;;24.65;;
22697;SDS011;11516;51.612;7.510;2022-11-30T03:28:00;33.80;;;23.60;;
22697;SDS011;11516;51.612;7.510;2022-11-30T03:30:26;34.88;;;25.23;;
22697;SDS011;11516;51.612;7.510;2022-11-30T03:32:51;34.43;;;24.63;;
22697;SDS011;11516;51.612;7.510;2022-11-30T03:35:17;34.92;;;24.40;;
22697;SDS011;11516;51.612;7.510;2022-11-30T03:37:43;32.63;;;24.17;;
22697;SDS011;11516;51.612;7.510;2022-11-30T03:40:15;31.50;;;23.77;;
22697;SDS011;11516;51.612;7.510;2022-11-30T03:42:41;34.53;;;24.05;;
22697;SDS011;11516;51.612;7.510;2022-11-30T03:45:06;32.33;;;23.60;;
22697;SDS011;11516;51.612;7.510;2022-11-30T03:47:32;32.50;;;23.80;;
22697;SDS011;11516;51.612;7.510;2022-11-30T03:49:58;33.83;;;23.92;;
22697;SDS011;11516;51.612;7.510;2022-11-30T03:52:23;31.95;;;23.35;;
22697;SDS011;11516;51.612;7.510;2022-11-30T03:54:48;31.43;;;23.07;;
22697;SDS011;11516;51.612;7.510;2022-11-30T03:57:14;31.97;;;23.40;;
22697;SDS011;11516;51.612;7.510;2022-11-30T03:59:39;32.53;;;24.00;;
22697;SDS011;11516;51.612;7.510;2022-11-30T04:02:05;32.80;;;23.45;;
22697;SDS011;11516;51.612;7.510;2022-11-30T04:04:30;32.70;;;23.83;;
22697;SDS011;11516;51.612;7.510;2022-11-30T04:06:56;33.70;;;25.10;;
22697;SDS011;11516;51.612;7.510;2022-11-30T04:09:21;32.00;;;23.27;;
22697;SDS011;11516;51.612;7.510;2022-11-30T04:11:47;32.22;;;23.35;;
22697;SDS011;11516;51.612;7.510;2022-11-30T04:14:12;30.00;;;22.93;;
22697;SDS011;11516;51.612;7.510;2022-11-30T04:16:38;30.40;;;23.20;;
22697;SDS011;11516;51.612;7.510;2022-11-30T04:19:03;31.90;;;24.10;;
22697;SDS011;11516;51.612;7.510;2022-11-30T04:21:29;31.77;;;23.00;;
22697;SDS011;11516;51.612;7.510;2022-11-30T04:23:54;31.50;;;23.63;;
22697;SDS011;11516;51.612;7.510;2022-11-30T04:26:20;30.97;;;22.93;;
22697;SDS011;11516;51.612;7.510;2022-11-30T04:28:45;32.07;;;24.13;;
22697;SDS011;11516;51.612;7.510;2022-11-30T04:31:11;31.10;;;23.55;;
22697;SDS011;11516;51.612;7.510;2022-11-30T04:33:37;33.17;;;24.30;;
22697;SDS011;11516;51.612;7.510;2022-11-30T04:36:03;34.17;;;25.00;;
22697;SDS011;11516;51.612;7.510;2022-11-30T04:38:30;32.58;;;23.08;;
22697;SDS011;11516;51.612;7.510;2022-11-30T04:40:56;30.63;;;21.55;;
22697;SDS011;11516;51.612;7.510;2022-11-30T04:43:22;31.03;;;22.30;;
22697;SDS011;11516;51.612;7.510;2022-11-30T04:45:49;31.07;;;22.63;;
22697;SDS011;11516;51.612;7.510;2022-11-30T04:48:15;33.80;;;23.58;;
22697;SDS011;11516;51.612;7.510;2022-11-30T04:50:41;32.88;;;24.35;;
22697;SDS011;11516;51.612;7.510;2022-11-30T04:53:07;31.63;;;23.07;;
22697;SDS011;11516;51.612;7.510;2022-11-30T04:55:35;32.97;;;24.67;;
22697;SDS011;11516;51.612;7.510;2022-11-30T04:58:01;30.88;;;22.73;;
22697;SDS011;11516;51.612;7.510;2022-11-30T05:00:27;33.17;;;24.27;;
22697;SDS011;11516;51.612;7.510;2022-11-30T05:02:54;33.47;;;23.95;;
22697;SDS011;11516;51.612;7.510;2022-11-30T05:05:20;34.05;;;23.80;;
22697;SDS011;11516;51.612;7.510;2022-11-30T05:08:04;32.00;;;23.27;;
22697;SDS011;11516;51.612;7.510;2022-11-30T05:10:29;32.45;;;23.60;;
22697;SDS011;11516;51.612;7.510;2022-11-30T05:12:57;33.15;;;23.02;;
22697;SDS011;11516;51.612;7.510;2022-11-30T05:15:23;35.13;;;23.90;;
22697;SDS011;11516;51.612;7.510;2022-11-30T05:17:49;34.22;;;24.05;;
22697;SDS011;11516;51.612;7.510;2022-11-30T05:20:15;34.05;;;24.30;;
22697;SDS011;11516;51.612;7.510;2022-11-30T05:22:41;34.10;;;24.52;;
22697;SDS011;11516;51.612;7.510;2022-11-30T05:25:07;34.83;;;25.10;;
22697;SDS011;11516;51.612;7.510;2022-11-30T05:27:33;36.45;;;25.58;;
22697;SDS011;11516;51.612;7.510;2022-11-30T05:29:59;35.22;;;25.17;;
22697;SDS011;11516;51.612;7.510;2022-11-30T05:32:25;34.92;;;24.65;;
22697;SDS011;11516;51.612;7.510;2022-11-30T05:34:51;33.03;;;23.92;;
22697;SDS011;11516;51.612;7.510;2022-11-30T05:37:16;34.87;;;24.50;;
22697;SDS011;11516;51.612;7.510;2022-11-30T05:39:42;36.10;;;25.40;;
22697;SDS011;11516;51.612;7.510;2022-11-30T05:42:07;34.20;;;24.58;;
22697;SDS011;11516;51.612;7.510;2022-11-30T05:44:33;34.80;;;24.40;;
22697;SDS011;11516;51.612;7.510;2022-11-30T05:46:58;36.93;;;26.43;;
22697;SDS011;11516;51.612;7.510;2022-11-30T05:49:24;33.37;;;24.70;;
22697;SDS011;11516;51.612;7.510;2022-11-30T05:51:49;35.10;;;24.38;;
22697;SDS011;11516;51.612;7.510;2022-11-30T05:54:15;36.08;;;25.92;;
22697;SDS011;11516;51.612;7.510;2022-11-30T05:56:41;36.97;;;26.23;;
22697;SDS011;11516;51.612;7.510;2022-11-30T05:59:07;35.87;;;25.23;;
22697;SDS011;11516;51.612;7.510;2022-11-30T06:01:33;35.50;;;25.75;;
22697;SDS011;11516;51.612;7.510;2022-11-30T06:03:59;36.47;;;25.92;;
22697;SDS011;11516;51.612;7.510;2022-11-30T06:06:24;36.85;;;25.25;;
22697;SDS011;11516;51.612;7.510;2022-11-30T06:08:50;34.57;;;25.80;;
22697;SDS011;11516;51.612;7.510;2022-11-30T06:11:16;36.90;;;26.67;;
22697;SDS011;11516;51.612;7.510;2022-11-30T06:13:42;37.45;;;26.05;;
22697;SDS011;11516;51.612;7.510;2022-11-30T06:16:08;38.03;;;26.23;;
22697;SDS011;11516;51.612;7.510;2022-11-30T06:18:34;35.80;;;25.77;;
22697;SDS011;11516;51.612;7.510;2022-11-30T06:21:01;36.17;;;25.50;;
22697;SDS011;11516;51.612;7.510;2022-11-30T06:23:29;39.53;;;27.67;;
22697;SDS011;11516;51.612;7.510;2022-11-30T06:25:55;39.55;;;27.33;;
22697;SDS011;11516;51.612;7.510;2022-11-30T06:28:21;36.37;;;26.03;;
22697;SDS011;11516;51.612;7.510;2022-11-30T06:30:46;37.78;;;26.23;;
22697;SDS011;11516;51.612;7.510;2022-11-30T06:33:12;39.07;;;25.87;;
22697;SDS011;11516;51.612;7.510;2022-11-30T06:35:43;35.27;;;25.03;;
22697;SDS011;11516;51.612;7.510;2022-11-30T06:38:10;33.83;;;24.25;;
22697;SDS011;11516;51.612;7.510;2022-11-30T06:40:36;35.15;;;25.23;;
22697;SDS011;11516;51.612;7.510;2022-11-30T06:43:01;36.63;;;25.83;;
22697;SDS011;11516;51.612;7.510;2022-11-30T06:45:27;34.80;;;24.30;;
22697;SDS011;11516;51.612;7.510;2022-11-30T06:47:55;35.75;;;26.35;;
22697;SDS011;11516;51.612;7.510;2022-11-30T06:50:21;35.95;;;25.33;;
22697;SDS011;11516;51.612;7.510;2022-11-30T06:52:47;36.55;;;26.02;;
22697;SDS011;11516;51.612;7.510;2022-11-30T06:55:13;35.73;;;24.60;;
22697;SDS011;11516;51.612;7.510;2022-11-30T06:57:39;59.90;;;41.97;;
22697;SDS011;11516;51.612;7.510;2022-11-30T07:00:04;36.80;;;26.10;;
22697;SDS011;11516;51.612;7.510;2022-11-30T07:02:30;51.40;;;35.05;;
22697;SDS011;11516;51.612;7.510;2022-11-30T07:04:56;48.23;;;32.23;;
22697;SDS011;11516;51.612;7.510;2022-11-30T07:07:21;36.67;;;25.53;;
22697;SDS011;11516;51.612;7.510;2022-11-30T07:09:48;37.25;;;26.10;;
22697;SDS011;11516;51.612;7.510;2022-11-30T07:12:14;35.28;;;25.25;;
22697;SDS011;11516;51.612;7.510;2022-11-30T07:14:40;36.20;;;26.10;;
22697;SDS011;11516;51.612;7.510;2022-11-30T07:17:06;34.92;;;24.40;;
22697;SDS011;11516;51.612;7.510;2022-11-30T07:19:32;36.95;;;25.95;;
22697;SDS011;11516;51.612;7.510;2022-11-30T07:21:58;38.83;;;27.33;;
22697;SDS011;11516;51.612;7.510;2022-11-30T07:24:23;36.13;;;25.40;;
22697;SDS011;11516;51.612;7.510;2022-11-30T07:27:08;35.35;;;25.27;;
22697;SDS011;11516;51.612;7.510;2022-11-30T07:29:34;37.15;;;26.33;;
22697;SDS011;11516;51.612;7.510;2022-11-30T07:31:59;38.63;;;25.88;;
22697;SDS011;11516;51.612;7.510;2022-11-30T07:34:25;37.07;;;25.13;;
22697;SDS011;11516;51.612;7.510;2022-11-30T07:36:50;36.13;;;24.70;;
22697;SDS011;11516;51.612;7.510;2022-11-30T07:39:16;35.20;;;24.48;;
22697;SDS011;11516;51.612;7.510;2022-11-30T07:41:41;36.60;;;25.43;;
22697;SDS011;11516;51.612;7.510;2022-11-30T07:44:07;36.43;;;24.77;;
22697;SDS011;11516;51.612;7.510;2022-11-30T07:46:34;36.95;;;25.83;;
22697;SDS011;11516;51.612;7.510;2022-11-30T07:49:00;37.22;;;25.35;;
22697;SDS011;11516;51.612;7.510;2022-11-30T07:51:27;36.85;;;25.48;;
22697;SDS011;11516;51.612;7.510;2022-11-30T07:53:55;34.58;;;24.63;;
22697;SDS011;11516;51.612;7.510;2022-11-30T07:56:22;35.17;;;24.58;;
22697;SDS011;11516;51.612;7.510;2022-11-30T07:58:48;35.60;;;24.85;;
22697;SDS011;11516;51.612;7.510;2022-11-30T08:01:20;34.67;;;24.33;;
22697;SDS011;11516;51.612;7.510;2022-11-30T08:03:49;36.40;;;25.35;;
22697;SDS011;11516;51.612;7.510;2022-11-30T08:06:19;35.28;;;24.92;;
22697;SDS011;11516;51.612;7.510;2022-11-30T08:08:50;35.35;;;25.13;;
22697;SDS011;11516;51.612;7.510;2022-11-30T08:11:18;36.15;;;25.25;;
22697;SDS011;11516;51.612;7.510;2022-11-30T08:13:48;36.75;;;24.42;;
22697;SDS011;11516;51.612;7.510;2022-11-30T08:16:20;37.47;;;25.37;;
22697;SDS011;11516;51.612;7.510;2022-11-30T08:18:47;35.83;;;24.70;;
22697;SDS011;11516;51.612;7.510;2022-11-30T08:21:15;36.63;;;25.90;;
22697;SDS011;11516;51.612;7.510;2022-11-30T08:23:43;36.30;;;25.92;;
22697;SDS011;11516;51.612;7.510;2022-11-30T08:26:12;34.77;;;24.50;;
22697;SDS011;11516;51.612;7.510;2022-11-30T08:28:39;36.85;;;25.08;;
22697;SDS011;11516;51.612;7.510;2022-11-30T08:31:07;36.83;;;24.63;;
22697;SDS011;11516;51.612;7.510;2022-11-30T08:33:35;35.72;;;24.40;;
22697;SDS011;11516;51.612;7.510;2022-11-30T08:36:05;37.33;;;25.42;;
22697;SDS011;11516;51.612;7.510;2022-11-30T08:38:30;37.42;;;24.77;;
22697;SDS011;11516;51.612;7.510;2022-11-30T08:40:56;36.30;;;25.33;;
22697;SDS011;11516;51.612;7.510;2022-11-30T08:43:22;35.25;;;24.90;;
22697;SDS011;11516;51.612;7.510;2022-11-30T08:45:47;35.10;;;24.80;;
22697;SDS011;11516;51.612;7.510;2022-11-30T08:48:13;34.53;;;24.40;;
22697;SDS011;11516;51.612;7.510;2022-11-30T08:50:38;36.27;;;25.67;;
22697;SDS011;11516;51.612;7.510;2022-11-30T08:53:04;33.05;;;23.35;;
22697;SDS011;11516;51.612;7.510;2022-11-30T08:55:29;37.65;;;24.85;;
22697;SDS011;11516;51.612;7.510;2022-11-30T08:57:55;39.23;;;26.73;;
22697;SDS011;11516;51.612;7.510;2022-11-30T09:00:20;37.50;;;24.63;;
22697;SDS011;11516;51.612;7.510;2022-11-30T09:02:46;37.77;;;25.17;;
22697;SDS011;11516;51.612;7.510;2022-11-30T09:05:12;38.95;;;25.98;;
22697;SDS011;11516;51.612;7.510;2022-11-30T09:07:38;36.77;;;24.30;;
22697;SDS011;11516;51.612;7.510;2022-11-30T09:10:03;38.22;;;25.60;;
22697;SDS011;11516;51.612;7.510;2022-11-30T09:12:29;37.45;;;25.83;;
22697;SDS011;11516;51.612;7.510;2022-11-30T09:14:59;51.53;;;35.47;;
22697;SDS011;11516;51.612;7.510;2022-11-30T09:17:24;40.17;;;27.95;;
22697;SDS011;11516;51.612;7.510;2022-11-30T09:19:50;35.20;;;25.17;;
22697;SDS011;11516;51.612;7.510;2022-11-30T09:22:16;39.00;;;26.55;;
22697;SDS011;11516;51.612;7.510;2022-11-30T09:24:42;34.13;;;22.65;;
22697;SDS011;11516;51.612;7.510;2022-11-30T09:27:07;34.80;;;24.98;;
22697;SDS011;11516;51.612;7.510;2022-11-30T09:29:34;31.87;;;21.80;;
22697;SDS011;11516;51.612;7.510;2022-11-30T09:32:00;33.92;;;22.13;;
22697;SDS011;11516;51.612;7.510;2022-11-30T09:34:25;32.00;;;21.87;;
22697;SDS011;11516;51.612;7.510;2022-11-30T09:36:51;31.73;;;22.33;;
22697;SDS011;11516;51.612;7.510;2022-11-30T09:39:16;35.03;;;22.97;;
22697;SDS011;11516;51.612;7.510;2022-11-30T09:41:46;35.77;;;22.93;;
22697;SDS011;11516;51.612;7.510;2022-11-30T09:50:12;35.08;;;24.23;;
22697;SDS011;11516;51.612;7.510;2022-11-30T09:52:40;34.78;;;22.88;;
22697;SDS011;11516;51.612;7.510;2022-11-30T09:55:11;35.10;;;23.00;;
22697;SDS011;11516;51.612;7.510;2022-11-30T09:57:45;34.25;;;22.50;;
22697;SDS011;11516;51.612;7.510;2022-11-30T10:00:17;33.60;;;22.05;;
22697;SDS011;11516;51.612;7.510;2022-11-30T10:02:45;35.70;;;22.63;;
22697;SDS011;11516;51.612;7.510;2022-11-30T10:05:17;33.17;;;22.88;;
22697;SDS011;11516;51.612;7.510;2022-11-30T10:18:22;45.60;;;28.63;;
22697;SDS011;11516;51.612;7.510;2022-11-30T10:24:01;33.33;;;21.93;;
22697;SDS011;11516;51.612;7.510;2022-11-30T10:26:34;32.63;;;20.53;;
22697;SDS011;11516;51.612;7.510;2022-11-30T10:29:16;33.13;;;22.30;;
22697;SDS011;11516;51.612;7.510;2022-11-30T10:31:45;34.15;;;22.38;;
22697;SDS011;11516;51.612;7.510;2022-11-30T10:34:20;29.73;;;19.97;;
22697;SDS011;11516;51.612;7.510;2022-11-30T10:37:11;29.88;;;20.20;;
22697;SDS011;11516;51.612;7.510;2022-11-30T10:42:40;32.85;;;20.88;;
22697;SDS011;11516;51.612;7.510;2022-11-30T10:47:36;31.58;;;21.30;;
22697;SDS011;11516;51.612;7.510;2022-11-30T10:50:27;33.83;;;20.58;;
22697;SDS011;11516;51.612;7.510;2022-11-30T10:52:54;31.02;;;19.60;;
22697;SDS011;11516;51.612;7.510;2022-11-30T10:55:22;28.67;;;18.33;;
22697;SDS011;11516;51.612;7.510;2022-11-30T10:57:55;26.90;;;17.15;;
22697;SDS011;11516;51.612;7.510;2022-11-30T11:00:37;24.63;;;16.25;;
22697;SDS011;11516;51.612;7.510;2022-11-30T11:03:02;27.25;;;17.98;;
22697;SDS011;11516;51.612;7.510;2022-11-30T11:05:47;24.40;;;17.13;;
22697;SDS011;11516;51.612;7.510;2022-11-30T11:08:46;25.08;;;16.40;;
22697;SDS011;11516;51.612;7.510;2022-11-30T11:11:31;23.63;;;16.33;;
22697;SDS011;11516;51.612;7.510;2022-11-30T11:14:17;24.98;;;16.90;;
22697;SDS011;11516;51.612;7.510;2022-11-30T11:21:57;22.70;;;15.52;;
22697;SDS011;11516;51.612;7.510;2022-11-30T11:24:25;23.80;;;15.32;;
22697;SDS011;11516;51.612;7.510;2022-11-30T11:26:52;20.95;;;15.05;;
22697;SDS011;11516;51.612;7.510;2022-11-30T11:29:21;20.45;;;15.07;;
22697;SDS011;11516;51.612;7.510;2022-11-30T11:31:57;38.35;;;24.10;;
22697;SDS011;11516;51.612;7.510;2022-11-30T11:34:36;29.20;;;19.02;;
22697;SDS011;11516;51.612;7.510;2022-11-30T11:42:45;21.80;;;15.00;;
22697;SDS011;11516;51.612;7.510;2022-11-30T11:45:27;19.97;;;14.43;;
22697;SDS011;11516;51.612;7.510;2022-11-30T11:48:06;19.57;;;14.67;;
22697;SDS011;11516;51.612;7.510;2022-11-30T11:50:59;17.35;;;13.20;;
22697;SDS011;11516;51.612;7.510;2022-11-30T11:53:49;18.63;;;13.73;;
22697;SDS011;11516;51.612;7.510;2022-11-30T11:56:34;19.88;;;14.68;;
22697;SDS011;11516;51.612;7.510;2022-11-30T11:59:11;19.10;;;13.50;;
22697;SDS011;11516;51.612;7.510;2022-11-30T12:04:36;19.55;;;13.70;;
22697;SDS011;11516;51.612;7.510;2022-11-30T12:10:05;16.95;;;13.18;;
22697;SDS011;11516;51.612;7.510;2022-11-30T12:12:44;17.52;;;12.52;;
22697;SDS011;11516;51.612;7.510;2022-11-30T12:15:10;18.60;;;13.53;;
22697;SDS011;11516;51.612;7.510;2022-11-30T12:20:21;18.70;;;13.32;;
22697;SDS011;11516;51.612;7.510;2022-11-30T12:23:21;18.50;;;14.20;;
22697;SDS011;11516;51.612;7.510;2022-11-30T12:25:53;22.08;;;14.90;;
22697;SDS011;11516;51.612;7.510;2022-11-30T12:28:24;20.38;;;13.93;;
22697;SDS011;11516;51.612;7.510;2022-11-30T12:31:14;21.63;;;15.65;;
22697;SDS011;11516;51.612;7.510;2022-11-30T12:36:25;20.38;;;15.02;;
22697;SDS011;11516;51.612;7.510;2022-11-30T12:52:57;18.83;;;15.00;;
22697;SDS011;11516;51.612;7.510;2022-11-30T12:58:24;22.65;;;14.95;;
22697;SDS011;11516;51.612;7.510;2022-11-30T13:03:42;20.38;;;15.07;;
22697;SDS011;11516;51.612;7.510;2022-11-30T13:09:03;18.55;;;14.45;;
22697;SDS011;11516;51.612;7.510;2022-11-30T13:11:42;19.70;;;14.32;;
22697;SDS011;11516;51.612;7.510;2022-11-30T13:14:15;21.65;;;14.38;;
22697;SDS011;11516;51.612;7.510;2022-11-30T13:16:45;19.47;;;14.47;;
22697;SDS011;11516;51.612;7.510;2022-11-30T13:22:03;18.73;;;14.23;;
22697;SDS011;11516;51.612;7.510;2022-11-30T13:24:36;20.27;;;15.32;;
22697;SDS011;11516;51.612;7.510;2022-11-30T13:30:03;19.20;;;14.75;;
22697;SDS011;11516;51.612;7.510;2022-11-30T13:32:49;23.60;;;15.05;;
22697;SDS011;11516;51.612;7.510;2022-11-30T13:38:11;19.83;;;14.50;;
22697;SDS011;11516;51.612;7.510;2022-11-30T13:40:59;22.65;;;15.40;;
22697;SDS011;11516;51.612;7.510;2022-11-30T13:43:27;22.38;;;14.68;;
22697;SDS011;11516;51.612;7.510;2022-11-30T13:49:07;22.92;;;16.45;;
22697;SDS011;11516;51.612;7.510;2022-11-30T13:51:46;26.07;;;16.70;;
22697;SDS011;11516;51.612;7.510;2022-11-30T13:59:52;24.40;;;16.77;;
22697;SDS011;11516;51.612;7.510;2022-11-30T21:17:15;36.65;;;22.58;;
22697;SDS011;11516;51.612;7.510;2022-11-30T21:19:41;38.77;;;23.07;;
22697;SDS011;11516;51.612;7.510;2022-11-30T21:22:06;43.08;;;27.10;;
22697;SDS011;11516;51.612;7.510;2022-11-30T21:24:32;45.10;;;26.27;;
22697;SDS011;11516;51.612;7.510;2022-11-30T21:26:58;37.35;;;24.27;;
22697;SDS011;11516;51.612;7.510;2022-11-30T21:29:24;40.27;;;23.37;;
22697;SDS011;11516;51.612;7.510;2022-11-30T21:31:50;40.17;;;23.92;;
22697;SDS011;11516;51.612;7.510;2022-11-30T21:34:15;39.87;;;24.40;;
22697;SDS011;11516;51.612;7.510;2022-11-30T21:36:41;36.27;;;22.43;;
22697;SDS011;11516;51.612;7.510;2022-11-30T21:39:07;38.28;;;24.10;;
22697;SDS011;11516;51.612;7.510;2022-11-30T21:41:37;42.10;;;24.58;;
22697;SDS011;11516;51.612;7.510;2022-11-30T21:44:04;42.92;;;25.65;;
22697;SDS011;11516;51.612;7.510;2022-11-30T21:46:31;42.88;;;25.17;;
22697;SDS011;11516;51.612;7.510;2022-11-30T21:48:57;44.67;;;27.00;;
22697;SDS011;11516;51.612;7.510;2022-11-30T21:51:24;43.20;;;25.40;;
22697;SDS011;11516;51.612;7.510;2022-11-30T21:53:52;44.95;;;25.42;;
22697;SDS011;11516;51.612;7.510;2022-11-30T21:56:20;43.67;;;26.95;;
22697;SDS011;11516;51.612;7.510;2022-11-30T21:58:48;42.17;;;26.70;;
22697;SDS011;11516;51.612;7.510;2022-11-30T22:01:15;49.97;;;26.40;;
22697;SDS011;11516;51.612;7.510;2022-11-30T22:03:43;47.50;;;27.63;;
22697;SDS011;11516;51.612;7.510;2022-11-30T22:06:10;48.67;;;27.93;;
22697;SDS011;11516;51.612;7.510;2022-11-30T22:08:40;47.65;;;27.80;;
22697;SDS011;11516;51.612;7.510;2022-11-30T22:11:08;47.60;;;26.75;;
22697;SDS011;11516;51.612;7.510;2022-11-30T22:13:34;49.30;;;27.60;;
22697;SDS011;11516;51.612;7.510;2022-11-30T22:16:00;52.07;;;28.87;;
22697;SDS011;11516;51.612;7.510;2022-11-30T22:18:26;46.38;;;27.20;;
22697;SDS011;11516;51.612;7.510;2022-11-30T22:20:52;48.80;;;28.60;;
22697;SDS011;11516;51.612;7.510;2022-11-30T22:23:18;60.47;;;30.00;;
22697;SDS011;11516;51.612;7.510;2022-11-30T22:25:44;53.50;;;30.23;;
22697;SDS011;11516;51.612;7.510;2022-11-30T22:28:09;50.60;;;27.67;;
22697;SDS011;11516;51.612;7.510;2022-11-30T22:30:35;60.43;;;32.17;;
22697;SDS011;11516;51.612;7.510;2022-11-30T22:33:00;60.00;;;31.50;;
22697;SDS011;11516;51.612;7.510;2022-11-30T22:35:26;60.40;;;33.63;;
22697;SDS011;11516;51.612;7.510;2022-11-30T22:37:51;56.73;;;30.37;;
22697;SDS011;11516;51.612;7.510;2022-11-30T22:40:17;57.78;;;29.27;;
22697;SDS011;11516;51.612;7.510;2022-11-30T22:42:43;57.43;;;31.67;;
22697;SDS011;11516;51.612;7.510;2022-11-30T22:45:08;55.97;;;30.43;;
22697;SDS011;11516;51.612;7.510;2022-11-30T22:47:34;57.08;;;31.80;;
22697;SDS011;11516;51.612;7.510;2022-11-30T22:50:00;56.10;;;31.10;;
22697;SDS011;11516;51.612;7.510;2022-11-30T22:52:25;62.73;;;31.60;;
22697;SDS011;11516;51.612;7.510;2022-11-30T22:54:51;59.90;;;31.45;;
22697;SDS011;11516;51.612;7.510;2022-11-30T22:57:16;57.33;;;30.77;;
22697;SDS011;11516;51.612;7.510;2022-11-30T22:59:42;64.27;;;33.03;;
22697;SDS011;11516;51.612;7.510;2022-11-30T23:02:07;66.00;;;33.03;;
22697;SDS011;11516;51.612;7.510;2022-11-30T23:04:33;67.73;;;37.43;;
22697;SDS011;11516;51.612;7.510;2022-11-30T23:06:58;64.72;;;32.85;;
22697;SDS011;11516;51.612;7.510;2022-11-30T23:09:24;62.83;;;33.05;;
22697;SDS011;11516;51.612;7.510;2022-11-30T23:11:49;63.60;;;32.97;;
22697;SDS011;11516;51.612;7.510;2022-11-30T23:14:15;63.33;;;32.50;;
22697;SDS011;11516;51.612;7.510;2022-11-30T23:16:42;66.07;;;33.22;;
22697;SDS011;11516;51.612;7.510;2022-11-30T23:19:07;66.55;;;33.92;;
22697;SDS011;11516;51.612;7.510;2022-11-30T23:21:36;65.30;;;33.40;;
22697;SDS011;11516;51.612;7.510;2022-11-30T23:24:04;65.22;;;32.50;;